Time;durP1;ratioP1;P1;durP2;ratioP2;P2;SDS_P1;SDS_P2;PMS_P1;PMS_P2;Temp;Humidity;BMP_temperature;BMP_pressure;BME280_temperature;BME280_humidity;BME280_pressure;Samples;Min_cycle;Max_cycle;Signal;HPM_P1;HPM_P2
2021/06/25 00:01:52;;;;;;;0.00;0.00;;;18.40;66.10;;;;;;5013108;28;20061;-63
2021/06/25 00:04:19;;;;;;;0.00;0.00;;;18.40;66.10;;;;;;5012735;28;20041;-63
2021/06/25 00:06:46;;;;;;;0.25;0.00;;;18.40;66.20;;;;;;5013259;28;20046;-64
2021/06/25 00:09:12;;;;;;;0.00;0.00;;;18.40;66.20;;;;;;5012409;28;20050;-63
2021/06/25 00:11:39;;;;;;;0.00;0.00;;;18.40;66.30;;;;;;4999966;28;20099;-63
2021/06/25 00:14:06;;;;;;;0.00;0.00;;;18.40;66.30;;;;;;5004639;28;20046;-63
2021/06/25 00:16:33;;;;;;;0.00;0.00;;;18.40;66.20;;;;;;5007702;28;20133;-63
2021/06/25 00:18:59;;;;;;;0.00;0.00;;;18.40;66.30;;;;;;5003835;28;20051;-63
2021/06/25 00:21:25;;;;;;;0.03;0.03;;;18.50;66.30;;;;;;4999943;28;20127;-63
2021/06/25 00:23:52;;;;;;;0.00;0.00;;;18.40;66.30;;;;;;5012678;28;20454;-63
2021/06/25 00:26:18;;;;;;;0.00;0.00;;;18.50;66.40;;;;;;5011843;28;20668;-63
2021/06/25 00:28:44;;;;;;;0.00;0.00;;;18.50;66.40;;;;;;5012930;28;20547;-63
2021/06/25 00:31:11;;;;;;;0.00;0.00;;;18.50;66.40;;;;;;5012022;28;20054;-64
2021/06/25 00:33:37;;;;;;;0.00;0.00;;;18.40;66.40;;;;;;5012395;28;20147;-63
2021/06/25 00:36:04;;;;;;;0.00;0.00;;;18.40;66.40;;;;;;5011811;28;20124;-63
2021/06/25 00:38:30;;;;;;;0.00;0.00;;;18.40;66.40;;;;;;5012295;28;20046;-63
2021/06/25 00:40:56;;;;;;;0.00;0.00;;;18.40;66.50;;;;;;5012102;28;20052;-63
2021/06/25 00:43:23;;;;;;;0.00;0.00;;;18.40;66.70;;;;;;5012042;28;20498;-63
2021/06/25 00:45:49;;;;;;;0.15;0.00;;;18.40;66.80;;;;;;5011168;28;20033;-63
2021/06/25 00:48:16;;;;;;;0.00;0.00;;;18.30;66.90;;;;;;5012050;28;20130;-63
2021/06/25 00:50:42;;;;;;;0.00;0.00;;;18.30;66.90;;;;;;5011974;28;20046;-63
2021/06/25 00:53:09;;;;;;;0.00;0.00;;;18.30;67.00;;;;;;5012078;28;20425;-63
2021/06/25 00:55:42;;;;;;;0.05;0.05;;;18.30;67.00;;;;;;5011720;28;20425;-63
2021/06/25 00:58:16;;;;;;;0.00;0.00;;;18.20;67.20;;;;;;5012415;28;20516;-63
2021/06/25 01:00:44;;;;;;;0.00;0.00;;;18.20;67.30;;;;;;4994110;28;20129;-63
2021/06/25 01:03:12;;;;;;;0.00;0.00;;;18.20;67.50;;;;;;5011877;28;20061;-63
2021/06/25 01:05:41;;;;;;;0.00;0.00;;;18.10;67.60;;;;;;5011726;28;20041;-63
2021/06/25 01:08:11;;;;;;;0.00;0.00;;;18.10;67.60;;;;;;5012534;28;20129;-63
2021/06/25 01:10:43;;;;;;;0.00;0.00;;;18.10;67.50;;;;;;5012098;28;20046;-63
2021/06/25 01:13:10;;;;;;;0.00;0.00;;;18.00;67.40;;;;;;5011827;28;20046;-63
2021/06/25 01:15:36;;;;;;;0.00;0.00;;;18.00;67.30;;;;;;5011895;28;20045;-63
2021/06/25 01:18:04;;;;;;;0.00;0.00;;;18.00;67.20;;;;;;5011528;28;20548;-63
2021/06/25 01:20:32;;;;;;;0.00;0.00;;;18.00;67.20;;;;;;5011674;28;20050;-63
2021/06/25 01:22:59;;;;;;;0.00;0.00;;;18.00;67.00;;;;;;5011783;28;20050;-63
2021/06/25 01:25:36;;;;;;;0.00;0.00;;;17.90;67.90;;;;;;5011775;28;20584;-63
2021/06/25 01:28:06;;;;;;;0.00;0.00;;;17.90;67.00;;;;;;5011791;28;20492;-63
2021/06/25 01:30:38;;;;;;;0.00;0.00;;;17.90;66.90;;;;;;5011624;28;20399;-63
2021/06/25 01:33:12;;;;;;;0.00;0.00;;;17.90;66.90;;;;;;5011253;28;20061;-63
2021/06/25 01:35:39;;;;;;;0.00;0.00;;;17.90;67.00;;;;;;5011623;28;20513;-63
2021/06/25 01:38:06;;;;;;;0.00;0.00;;;17.90;67.20;;;;;;5012409;28;20421;-63
2021/06/25 01:40:33;;;;;;;0.00;0.00;;;17.90;67.20;;;;;;5015652;28;20050;-63
2021/06/25 01:43:02;;;;;;;0.00;0.00;;;17.80;67.30;;;;;;5015680;28;20117;-63
2021/06/25 01:45:31;;;;;;;0.00;0.00;;;17.80;67.30;;;;;;5015197;28;20050;-65
2021/06/25 01:47:58;;;;;;;0.00;0.00;;;17.90;67.50;;;;;;5015593;28;20041;-63
2021/06/25 01:50:27;;;;;;;0.00;0.00;;;17.90;67.50;;;;;;5015774;28;20087;-63
2021/06/25 01:52:59;;;;;;;0.00;0.00;;;17.80;67.60;;;;;;5015640;28;20125;-64
2021/06/25 01:55:27;;;;;;;0.00;0.00;;;17.90;67.60;;;;;;5015498;28;20050;-63
2021/06/25 01:57:54;;;;;;;0.00;0.00;;;17.90;67.70;;;;;;5015664;28;20176;-63
2021/06/25 02:00:21;;;;;;;0.00;0.00;;;17.90;67.70;;;;;;5015286;28;20172;-64
2021/06/25 02:02:47;;;;;;;0.10;0.00;;;17.90;68.00;;;;;;5015110;28;20500;-63
2021/06/25 02:05:15;;;;;;;0.00;0.00;;;17.90;68.10;;;;;;5015662;28;20053;-63
2021/06/25 02:07:42;;;;;;;0.00;0.00;;;17.90;68.60;;;;;;5014778;28;20049;-63
2021/06/25 02:10:11;;;;;;;0.00;0.00;;;17.80;68.60;;;;;;5015193;28;20058;-63
2021/06/25 02:12:38;;;;;;;0.00;0.00;;;17.80;68.70;;;;;;5014609;28;20042;-63
2021/06/25 02:15:10;;;;;;;0.00;0.00;;;17.80;68.70;;;;;;5014922;28;20045;-63
2021/06/25 02:17:36;;;;;;;0.10;0.03;;;17.80;68.60;;;;;;5014851;28;20517;-63
2021/06/25 02:20:06;;;;;;;0.00;0.00;;;17.90;68.80;;;;;;5014948;28;20099;-63
2021/06/25 02:22:33;;;;;;;0.00;0.00;;;17.90;68.80;;;;;;5012697;28;20046;-63
2021/06/25 02:24:59;;;;;;;0.00;0.00;;;17.90;68.80;;;;;;5014595;28;20395;-63
2021/06/25 02:27:26;;;;;;;0.00;0.00;;;17.90;68.90;;;;;;5011814;28;20125;-63
2021/06/25 02:29:52;;;;;;;0.00;0.00;;;17.90;69.10;;;;;;5014396;28;20108;-63
2021/06/25 02:32:18;;;;;;;0.00;0.00;;;17.90;69.20;;;;;;5013894;28;20054;-63
2021/06/25 02:34:45;;;;;;;0.00;0.00;;;17.90;69.20;;;;;;5013065;28;20158;-63
2021/06/25 02:37:11;;;;;;;0.00;0.00;;;17.90;69.20;;;;;;5013247;28;20081;-63
2021/06/25 02:39:38;;;;;;;0.00;0.00;;;17.90;69.30;;;;;;5013482;28;20108;-63
2021/06/25 02:42:05;;;;;;;0.00;0.00;;;17.90;69.30;;;;;;5013307;28;20041;-63
2021/06/25 02:44:31;;;;;;;0.00;0.00;;;17.90;69.40;;;;;;5013093;28;20119;-63
2021/06/25 02:46:58;;;;;;;0.00;0.00;;;17.90;69.50;;;;;;5032871;28;20045;-63
2021/06/25 02:49:24;;;;;;;0.00;0.00;;;17.90;69.60;;;;;;5032883;28;20512;-63
2021/06/25 02:51:50;;;;;;;0.00;0.00;;;17.90;69.50;;;;;;5018711;28;20502;-63
2021/06/25 02:54:17;;;;;;;0.00;0.00;;;18.00;69.60;;;;;;5013176;28;20060;-63
2021/06/25 02:56:43;;;;;;;0.00;0.00;;;18.00;69.70;;;;;;5013187;28;20478;-63
2021/06/25 02:59:09;;;;;;;0.00;0.00;;;18.00;69.80;;;;;;5023842;28;20132;-63
2021/06/25 03:01:36;;;;;;;0.00;0.00;;;18.00;70.00;;;;;;5013176;28;20077;-63
2021/06/25 03:04:02;;;;;;;0.15;0.00;;;17.90;71.00;;;;;;5012432;28;20045;-63
2021/06/25 03:06:28;;;;;;;0.00;0.00;;;17.90;70.10;;;;;;5013152;28;20054;-63
2021/06/25 03:08:55;;;;;;;0.00;0.00;;;17.90;70.20;;;;;;5012754;28;20042;-63
2021/06/25 03:11:21;;;;;;;0.00;0.00;;;17.80;70.10;;;;;;5013355;28;20056;-63
2021/06/25 03:13:48;;;;;;;0.10;0.00;;;17.90;70.10;;;;;;5012002;28;20050;-63
2021/06/25 03:16:14;;;;;;;0.00;0.00;;;17.90;70.20;;;;;;5012716;28;20466;-63
2021/06/25 03:18:40;;;;;;;0.00;0.00;;;17.90;70.20;;;;;;5012734;28;20069;-63
2021/06/25 03:21:07;;;;;;;0.00;0.00;;;17.90;70.20;;;;;;5012901;28;20077;-63
2021/06/25 03:23:33;;;;;;;0.00;0.00;;;17.90;70.20;;;;;;4994425;28;20532;-63
2021/06/25 03:25:59;;;;;;;0.00;0.00;;;17.90;70.20;;;;;;5012885;28;20184;-63
2021/06/25 03:28:26;;;;;;;0.00;0.00;;;17.90;70.20;;;;;;5012539;28;20750;-63
2021/06/25 03:30:52;;;;;;;0.10;0.00;;;18.00;70.30;;;;;;5012342;28;20112;-63
2021/06/25 03:33:18;;;;;;;0.00;0.00;;;18.00;70.20;;;;;;4961050;28;1111757;-63
2021/06/25 03:35:45;;;;;;;0.00;0.00;;;18.00;70.20;;;;;;5011352;28;20042;-63
2021/06/25 03:38:11;;;;;;;0.00;0.00;;;17.90;70.10;;;;;;5016904;28;20169;-63
2021/06/25 03:40:37;;;;;;;0.00;0.00;;;18.00;70.10;;;;;;5013692;28;20057;-63
2021/06/25 03:43:04;;;;;;;0.20;0.00;;;17.90;70.10;;;;;;5012956;28;20096;-63
2021/06/25 03:45:31;;;;;;;0.00;0.00;;;18.00;70.10;;;;;;5013419;28;20077;-63
2021/06/25 03:47:57;;;;;;;0.00;0.00;;;18.00;70.20;;;;;;5013549;28;20077;-63
2021/06/25 03:50:24;;;;;;;0.00;0.00;;;17.90;70.10;;;;;;5013235;28;20096;-63
2021/06/25 03:52:50;;;;;;;0.10;0.10;;;17.90;70.20;;;;;;5012871;28;20129;-63
2021/06/25 03:55:17;;;;;;;0.00;0.00;;;18.00;70.30;;;;;;5008544;28;20060;-63
2021/06/25 03:57:43;;;;;;;0.00;0.00;;;17.90;70.50;;;;;;5013153;28;20589;-63
2021/06/25 04:00:14;;;;;;;0.00;0.00;;;18.00;70.70;;;;;;5012925;28;20050;-63
2021/06/25 04:02:40;;;;;;;0.00;0.00;;;17.90;70.90;;;;;;5012386;28;20525;-63
2021/06/25 04:05:07;;;;;;;0.00;0.00;;;17.90;71.00;;;;;;5012522;28;20053;-63
2021/06/25 04:07:34;;;;;;;0.00;0.00;;;17.90;71.20;;;;;;4999290;28;20191;-63
2021/06/25 04:10:01;;;;;;;0.00;0.00;;;17.90;71.50;;;;;;5012110;28;20453;-63
2021/06/25 04:12:28;;;;;;;0.10;0.10;;;17.80;71.90;;;;;;5028436;28;20045;-63
2021/06/25 04:14:54;;;;;;;0.10;0.00;;;17.90;72.10;;;;;;5010698;28;20050;-63
2021/06/25 04:17:21;;;;;;;0.00;0.00;;;17.80;72.30;;;;;;5028589;28;20077;-63
2021/06/25 04:19:47;;;;;;;0.00;0.00;;;17.80;72.70;;;;;;5024173;28;20057;-63
2021/06/25 04:22:14;;;;;;;0.00;0.00;;;17.80;73.10;;;;;;5025527;28;20682;-63
2021/06/25 04:24:40;;;;;;;0.00;0.00;;;17.80;73.20;;;;;;5025299;28;20199;-63
2021/06/25 04:27:07;;;;;;;0.00;0.00;;;17.80;73.60;;;;;;5012549;28;20050;-64
2021/06/25 04:29:34;;;;;;;0.00;0.00;;;17.70;73.70;;;;;;5016173;28;20478;-63
2021/06/25 04:32:01;;;;;;;0.00;0.00;;;17.60;73.90;;;;;;5012193;28;20189;-63
2021/06/25 04:34:27;;;;;;;0.00;0.00;;;17.60;74.10;;;;;;5017542;28;20127;-63
2021/06/25 04:36:53;;;;;;;0.00;0.00;;;17.60;74.20;;;;;;5021846;28;20497;-63
2021/06/25 04:39:20;;;;;;;0.00;0.00;;;17.60;74.40;;;;;;5017480;28;20077;-63
2021/06/25 04:41:46;;;;;;;0.00;0.00;;;17.50;74.50;;;;;;5020248;28;20140;-63
2021/06/25 04:44:12;;;;;;;0.00;0.00;;;17.50;74.60;;;;;;5015651;28;20465;-63
2021/06/25 04:46:39;;;;;;;0.10;0.10;;;17.50;74.70;;;;;;5012670;28;20050;-63
2021/06/25 04:49:05;;;;;;;0.00;0.00;;;17.50;74.80;;;;;;5011399;28;20077;-63
2021/06/25 04:51:32;;;;;;;0.00;0.00;;;17.50;75.00;;;;;;5013465;28;20096;-62
2021/06/25 04:53:58;;;;;;;0.00;0.00;;;17.50;75.20;;;;;;5013012;28;20512;-67
2021/06/25 04:56:24;;;;;;;0.03;0.03;;;17.50;75.20;;;;;;5012923;28;20042;-65
2021/06/25 04:58:51;;;;;;;0.00;0.00;;;17.50;75.50;;;;;;5013771;28;20520;-63
2021/06/25 05:01:17;;;;;;;0.00;0.00;;;17.50;75.50;;;;;;5012808;28;20490;-63
2021/06/25 05:03:43;;;;;;;0.00;0.00;;;17.50;75.50;;;;;;5010998;28;20510;-64
2021/06/25 05:06:10;;;;;;;0.00;0.00;;;17.50;75.60;;;;;;5011753;28;20046;-64
2021/06/25 05:08:36;;;;;;;0.00;0.00;;;17.50;75.80;;;;;;5013794;28;20513;-64
2021/06/25 05:11:02;;;;;;;0.00;0.00;;;17.50;75.90;;;;;;5012121;28;20038;-64
2021/06/25 05:13:29;;;;;;;0.00;0.00;;;17.50;76.00;;;;;;5013282;28;20088;-64
2021/06/25 05:15:55;;;;;;;0.10;0.00;;;17.50;76.10;;;;;;5012957;28;20049;-64
2021/06/25 05:18:22;;;;;;;0.00;0.00;;;17.50;76.20;;;;;;5013513;28;20215;-64
2021/06/25 05:20:50;;;;;;;0.00;0.00;;;17.50;76.10;;;;;;5014110;28;20129;-64
2021/06/25 05:23:18;;;;;;;0.00;0.00;;;17.50;76.20;;;;;;5013123;28;20049;-65
2021/06/25 05:25:45;;;;;;;0.00;0.00;;;17.50;76.30;;;;;;5014435;28;20081;-64
2021/06/25 05:28:13;;;;;;;0.10;0.10;;;17.60;76.30;;;;;;5013274;28;20104;-64
2021/06/25 05:30:40;;;;;;;0.05;0.05;;;17.60;76.30;;;;;;5013221;28;20192;-64
2021/06/25 05:33:07;;;;;;;0.00;0.00;;;17.60;76.20;;;;;;5011176;28;20842;-64
2021/06/25 05:35:34;;;;;;;0.00;0.00;;;17.60;76.20;;;;;;4994823;28;20437;-64
2021/06/25 05:38:08;;;;;;;0.10;0.10;;;17.60;76.10;;;;;;5002650;28;20057;-64
2021/06/25 05:40:36;;;;;;;0.00;0.00;;;17.70;76.40;;;;;;5009553;28;20089;-64
2021/06/25 05:43:06;;;;;;;0.00;0.00;;;17.70;76.50;;;;;;5004158;28;20482;-64
2021/06/25 05:45:34;;;;;;;0.00;0.00;;;17.70;76.30;;;;;;5008843;28;20045;-64
2021/06/25 05:48:01;;;;;;;0.10;0.10;;;17.70;76.20;;;;;;5017310;28;20042;-64
2021/06/25 05:50:27;;;;;;;0.00;0.00;;;17.70;76.30;;;;;;5022021;28;20041;-64
2021/06/25 05:52:53;;;;;;;0.00;0.00;;;17.70;76.00;;;;;;5007369;28;20046;-64
2021/06/25 05:55:20;;;;;;;0.00;0.00;;;17.70;76.00;;;;;;5016056;28;20057;-61
2021/06/25 05:57:47;;;;;;;0.10;0.10;;;17.70;75.90;;;;;;5015685;28;20149;-61
2021/06/25 06:00:16;;;;;;;0.10;0.10;;;17.70;75.90;;;;;;5016716;28;20057;-62
2021/06/25 06:02:43;;;;;;;0.00;0.00;;;17.70;75.90;;;;;;5004542;28;20046;-62
2021/06/25 06:05:10;;;;;;;0.00;0.00;;;17.80;76.00;;;;;;5010940;28;20133;-62
2021/06/25 06:07:37;;;;;;;0.00;0.00;;;17.70;76.00;;;;;;5022425;28;20104;-62
2021/06/25 06:10:05;;;;;;;0.00;0.00;;;17.80;76.20;;;;;;5015438;28;20177;-62
2021/06/25 06:12:31;;;;;;;0.00;0.00;;;17.80;76.20;;;;;;5021994;28;20104;-62
2021/06/25 06:14:58;;;;;;;0.00;0.00;;;17.80;76.20;;;;;;5021887;28;20064;-62
2021/06/25 06:17:24;;;;;;;0.00;0.00;;;17.80;76.10;;;;;;5020411;28;20122;-62
2021/06/25 06:19:55;;;;;;;0.00;0.00;;;17.80;76.20;;;;;;5021560;28;20057;-62
2021/06/25 06:35:52;;;;;;;0.03;0.00;;;17.80;76.40;;;;;;5009215;28;20046;-62
2021/06/25 06:38:18;;;;;;;0.10;0.10;;;17.90;76.50;;;;;;5015298;28;20129;-60
2021/06/25 06:40:45;;;;;;;0.00;0.00;;;17.90;76.60;;;;;;5011011;28;20103;-60
2021/06/25 06:43:11;;;;;;;0.00;0.00;;;17.90;76.60;;;;;;5016010;28;20045;-60
2021/06/25 06:45:38;;;;;;;0.05;0.05;;;17.90;76.70;;;;;;5018328;28;20072;-60
2021/06/25 06:48:05;;;;;;;0.00;0.00;;;17.90;76.80;;;;;;5015770;28;20121;-60
2021/06/25 06:50:31;;;;;;;0.00;0.00;;;17.90;76.80;;;;;;5000789;28;20049;-60
2021/06/25 06:52:58;;;;;;;0.00;0.00;;;17.90;76.90;;;;;;5012229;28;20050;-61
2021/06/25 06:55:25;;;;;;;0.00;0.00;;;17.90;76.90;;;;;;5022400;28;20053;-60
2021/06/25 06:57:52;;;;;;;0.00;0.00;;;17.90;77.10;;;;;;5023634;28;20424;-60
2021/06/25 07:00:19;;;;;;;0.00;0.00;;;17.90;77.10;;;;;;5015330;28;20103;-60
2021/06/25 07:02:45;;;;;;;0.00;0.00;;;18.00;77.20;;;;;;5028875;28;20412;-60
2021/06/25 07:05:14;;;;;;;0.00;0.00;;;18.00;77.20;;;;;;5009414;28;20565;-62
2021/06/25 07:07:41;;;;;;;0.00;0.00;;;18.00;77.20;;;;;;5022608;28;20050;-60
2021/06/25 07:10:09;;;;;;;0.00;0.00;;;18.10;77.20;;;;;;5014979;28;20273;-60
2021/06/25 07:12:37;;;;;;;0.00;0.00;;;18.10;77.20;;;;;;5027485;28;20049;-60
2021/06/25 07:15:07;;;;;;;0.00;0.00;;;18.10;77.20;;;;;;5027987;28;20142;-60
2021/06/25 07:17:34;;;;;;;0.10;0.03;;;18.20;77.40;;;;;;5026433;28;20130;-60
2021/06/25 07:20:00;;;;;;;0.00;0.00;;;18.20;77.30;;;;;;5001545;28;20496;-60
2021/06/25 07:22:27;;;;;;;0.05;0.05;;;18.20;78.20;;;;;;5012212;28;20057;-60
2021/06/25 07:24:53;;;;;;;0.00;0.00;;;18.30;77.20;;;;;;5021397;28;20046;-60
2021/06/25 07:27:20;;;;;;;0.00;0.00;;;18.30;77.10;;;;;;5022935;28;20049;-60
2021/06/25 07:29:46;;;;;;;0.00;0.00;;;18.30;77.20;;;;;;5021987;28;20129;-60
2021/06/25 07:32:12;;;;;;;0.10;0.10;;;18.30;77.10;;;;;;5009889;28;20061;-60
2021/06/25 07:34:39;;;;;;;0.00;0.00;;;18.40;77.10;;;;;;5009630;28;20058;-60
2021/06/25 07:37:06;;;;;;;0.00;0.00;;;18.40;77.20;;;;;;5008924;28;20459;-60
2021/06/25 07:39:32;;;;;;;0.00;0.00;;;18.40;77.10;;;;;;5008968;28;20049;-60
2021/06/25 07:41:58;;;;;;;0.00;0.00;;;18.50;77.00;;;;;;5010043;28;20041;-60
2021/06/25 07:44:25;;;;;;;0.03;0.03;;;18.50;76.90;;;;;;5009592;28;20053;-60
2021/06/25 07:46:51;;;;;;;0.00;0.00;;;18.60;76.90;;;;;;5009923;28;20091;-60
2021/06/25 07:49:17;;;;;;;0.08;0.08;;;18.60;76.90;;;;;;5009575;28;20563;-60
2021/06/25 07:51:44;;;;;;;0.00;0.00;;;18.70;76.90;;;;;;5014595;28;20326;-60
2021/06/25 07:54:10;;;;;;;0.00;0.00;;;18.70;76.90;;;;;;5009240;28;20057;-60
2021/06/25 07:56:37;;;;;;;0.00;0.00;;;18.70;76.70;;;;;;5014369;28;20450;-60
2021/06/25 07:59:03;;;;;;;0.00;0.00;;;18.70;76.50;;;;;;4991032;28;20046;-60
2021/06/25 08:01:30;;;;;;;0.10;0.10;;;18.80;76.60;;;;;;5009430;28;20050;-60
2021/06/25 08:03:56;;;;;;;0.00;0.00;;;18.80;76.50;;;;;;5009117;28;20128;-60
2021/06/25 08:06:22;;;;;;;0.20;0.10;;;18.80;76.50;;;;;;5009209;28;20046;-60
2021/06/25 08:08:49;;;;;;;0.00;0.00;;;18.80;76.50;;;;;;5009489;28;20049;-60
2021/06/25 08:11:15;;;;;;;0.00;0.00;;;18.80;76.30;;;;;;5009241;28;20046;-60
2021/06/25 08:13:41;;;;;;;0.00;0.00;;;18.80;76.20;;;;;;5008724;28;20085;-61
2021/06/25 08:16:08;;;;;;;0.00;0.00;;;18.90;76.30;;;;;;5008982;28;20096;-60
2021/06/25 08:18:34;;;;;;;0.00;0.00;;;19.00;76.30;;;;;;5009104;28;20050;-60
2021/06/25 08:21:00;;;;;;;0.00;0.00;;;19.00;76.00;;;;;;5008788;28;20554;-60
2021/06/25 08:23:27;;;;;;;0.00;0.00;;;19.10;75.50;;;;;;5009114;28;20509;-60
2021/06/25 08:25:53;;;;;;;0.08;0.08;;;19.10;75.00;;;;;;5009052;28;20069;-60
2021/06/25 08:28:19;;;;;;;0.00;0.00;;;19.10;74.90;;;;;;5008752;28;20136;-60
2021/06/25 08:30:45;;;;;;;0.00;0.00;;;19.20;74.50;;;;;;5012721;28;20088;-60
2021/06/25 08:33:12;;;;;;;0.00;0.00;;;19.20;73.90;;;;;;5008103;28;20092;-60
2021/06/25 08:35:38;;;;;;;0.00;0.00;;;19.20;73.50;;;;;;5008908;28;20099;-60
2021/06/25 08:38:05;;;;;;;0.10;0.10;;;19.20;73.40;;;;;;5008689;28;20062;-60
2021/06/25 08:40:32;;;;;;;0.10;0.10;;;19.30;73.10;;;;;;5009017;28;20062;-60
2021/06/25 08:43:00;;;;;;;0.00;0.00;;;19.30;72.50;;;;;;5008402;28;20050;-60
2021/06/25 08:45:28;;;;;;;0.00;0.00;;;19.40;72.00;;;;;;5008444;28;20050;-61
2021/06/25 08:47:55;;;;;;;0.30;0.10;;;19.40;71.60;;;;;;5008614;28;20049;-60
2021/06/25 08:50:23;;;;;;;0.00;0.00;;;19.40;70.60;;;;;;5008284;28;20379;-60
2021/06/25 08:52:52;;;;;;;0.10;0.10;;;19.50;69.80;;;;;;5008579;28;20054;-60
2021/06/25 08:55:19;;;;;;;0.40;0.03;;;19.50;68.40;;;;;;5010531;28;20471;-60
2021/06/25 08:57:46;;;;;;;0.15;0.00;;;19.60;67.40;;;;;;5008412;28;20085;-60
2021/06/25 09:00:15;;;;;;;0.00;0.00;;;19.60;67.40;;;;;;5007847;28;20050;-60
2021/06/25 09:02:44;;;;;;;0.00;0.00;;;19.70;67.30;;;;;;5006834;28;20468;-60
2021/06/25 09:05:22;;;;;;;0.00;0.00;;;19.70;66.80;;;;;;5008345;28;20080;-60
2021/06/25 09:07:49;;;;;;;0.00;0.00;;;19.80;66.70;;;;;;5008488;28;20042;-60
2021/06/25 09:10:39;;;;;;;0.00;0.00;;;19.80;66.80;;;;;;5007962;28;20046;-60
2021/06/25 09:13:07;;;;;;;0.10;0.10;;;19.80;66.70;;;;;;5008004;28;20402;-60
2021/06/25 09:15:35;;;;;;;0.00;0.00;;;19.80;66.50;;;;;;5007747;28;20054;-60
2021/06/25 09:18:07;;;;;;;0.00;0.00;;;19.80;66.70;;;;;;5008539;28;20064;-60
2021/06/25 09:20:43;;;;;;;0.20;0.08;;;19.80;66.60;;;;;;5007885;28;20498;-60
2021/06/25 09:23:12;;;;;;;0.00;0.00;;;19.80;66.60;;;;;;5008027;28;20148;-61
2021/06/25 09:25:52;;;;;;;0.10;0.10;;;19.70;66.80;;;;;;5008230;28;20050;-60
2021/06/25 09:28:34;;;;;;;0.10;0.10;;;19.70;67.10;;;;;;5008037;28;20112;-59
2021/06/25 09:31:02;;;;;;;0.10;0.10;;;19.70;67.20;;;;;;5008020;28;20115;-60
2021/06/25 09:33:28;;;;;;;0.00;0.00;;;19.70;67.20;;;;;;5007027;28;20395;-60
2021/06/25 09:35:56;;;;;;;0.00;0.00;;;19.70;67.90;;;;;;5008445;28;20056;-60
2021/06/25 09:38:39;;;;;;;0.10;0.10;;;19.70;67.00;;;;;;5007671;28;20046;-60
2021/06/25 09:41:36;;;;;;;0.00;0.00;;;19.70;66.90;;;;;;5007882;28;20566;-60
2021/06/25 09:44:08;;;;;;;0.00;0.00;;;19.70;66.80;;;;;;4991472;28;20042;-60
2021/06/25 09:46:37;;;;;;;0.00;0.00;;;19.70;66.80;;;;;;5008223;28;20049;-60
2021/06/25 09:49:15;;;;;;;0.00;0.00;;;19.80;66.60;;;;;;5007886;28;20042;-61
2021/06/25 09:52:00;;;;;;;0.05;0.00;;;19.90;66.50;;;;;;5007798;28;20054;-60
2021/06/25 09:54:27;;;;;;;0.00;0.00;;;19.90;66.10;;;;;;5005703;28;20537;-60
2021/06/25 09:57:06;;;;;;;0.05;0.00;;;20.00;66.20;;;;;;5020630;28;20053;-60
2021/06/25 10:02:18;;;;;;;0.00;0.00;;;20.00;64.80;;;;;;5011640;28;20129;-60
2021/06/25 10:04:52;;;;;;;0.10;0.10;;;20.10;64.00;;;;;;5011543;28;20103;-60
2021/06/25 10:07:19;;;;;;;0.00;0.00;;;20.00;64.10;;;;;;5011531;28;20046;-60
2021/06/25 10:09:48;;;;;;;0.00;0.00;;;20.10;64.40;;;;;;5011601;28;20049;-60
2021/06/25 10:12:18;;;;;;;0.10;0.10;;;20.10;64.70;;;;;;5011092;28;20528;-60
2021/06/25 10:14:46;;;;;;;0.00;0.00;;;20.20;65.20;;;;;;5011706;28;20058;-60
2021/06/25 10:17:13;;;;;;;0.00;0.00;;;20.30;64.60;;;;;;5010751;28;20473;-60
2021/06/25 10:19:48;;;;;;;0.05;0.05;;;20.30;64.00;;;;;;5011426;28;20135;-60
2021/06/25 10:22:24;;;;;;;0.00;0.00;;;20.30;63.70;;;;;;5011050;28;20069;-60
2021/06/25 10:24:51;;;;;;;0.10;0.10;;;20.30;63.90;;;;;;5011308;28;20499;-60
2021/06/25 10:27:19;;;;;;;0.10;0.10;;;20.40;63.70;;;;;;5010991;28;20502;-60
2021/06/25 10:29:46;;;;;;;0.10;0.08;;;20.40;63.20;;;;;;5010866;28;20129;-60
2021/06/25 10:32:16;;;;;;;0.00;0.00;;;20.50;62.50;;;;;;5010934;28;20062;-60
2021/06/25 10:34:43;;;;;;;0.03;0.03;;;20.50;62.50;;;;;;5011184;28;20058;-60
2021/06/25 10:37:23;;;;;;;0.00;0.00;;;20.50;61.90;;;;;;5011129;28;20062;-60
2021/06/25 10:39:50;;;;;;;0.00;0.00;;;20.60;61.70;;;;;;5011008;28;20085;-60
2021/06/25 10:42:17;;;;;;;0.00;0.00;;;20.70;61.50;;;;;;5010564;28;20095;-60
2021/06/25 10:44:51;;;;;;;0.00;0.00;;;20.70;61.20;;;;;;5010880;28;20050;-60
2021/06/25 10:47:33;;;;;;;0.10;0.10;;;20.90;61.40;;;;;;4998414;28;20565;-60
2021/06/25 10:50:00;;;;;;;0.10;0.10;;;20.90;61.50;;;;;;5010847;28;20045;-60
2021/06/25 10:52:34;;;;;;;0.00;0.00;;;21.00;61.60;;;;;;5010634;28;20053;-60
2021/06/25 10:55:07;;;;;;;0.00;0.00;;;21.00;61.40;;;;;;5010439;28;20053;-60
2021/06/25 10:57:35;;;;;;;0.00;0.00;;;21.10;61.60;;;;;;4997953;28;20472;-60
2021/06/25 11:00:05;;;;;;;0.00;0.00;;;21.20;61.00;;;;;;5010607;28;20123;-60
2021/06/25 11:02:46;;;;;;;0.00;0.00;;;21.20;60.70;;;;;;4997449;28;20460;-61
2021/06/25 11:05:21;;;;;;;0.00;0.00;;;21.20;60.20;;;;;;5010465;28;20054;-60
2021/06/25 11:07:49;;;;;;;0.00;0.00;;;21.30;60.10;;;;;;5010167;28;20553;-61
2021/06/25 11:10:22;;;;;;;0.00;0.00;;;21.30;61.10;;;;;;5010038;28;20108;-61
2021/06/25 11:12:50;;;;;;;0.00;0.00;;;21.30;59.80;;;;;;5009856;28;20115;-61
2021/06/25 11:15:28;;;;;;;0.00;0.00;;;21.30;59.50;;;;;;5015223;28;20046;-60
2021/06/25 11:17:55;;;;;;;0.00;0.00;;;21.30;59.60;;;;;;5017668;28;20124;-60
2021/06/25 11:20:33;;;;;;;0.00;0.00;;;21.20;59.30;;;;;;5017456;28;20054;-61
2021/06/25 11:23:04;;;;;;;0.03;0.03;;;21.20;58.90;;;;;;5016913;28;20402;-60
2021/06/25 11:25:46;;;;;;;0.00;0.00;;;21.10;58.80;;;;;;5019727;28;20524;-62
2021/06/25 11:28:33;;;;;;;0.00;0.00;;;21.10;59.20;;;;;;5010797;28;20556;-60
2021/06/25 11:31:18;;;;;;;0.00;0.00;;;21.10;59.90;;;;;;5013567;28;20054;-60
2021/06/25 11:33:47;;;;;;;0.00;0.00;;;21.10;60.30;;;;;;5009614;28;20064;-60
2021/06/25 11:36:16;;;;;;;0.10;0.00;;;21.00;60.40;;;;;;5018848;28;20104;-62
2021/06/25 11:38:57;;;;;;;0.03;0.00;;;21.00;60.70;;;;;;5007221;28;20050;-61
2021/06/25 11:41:34;;;;;;;0.00;0.00;;;21.00;61.30;;;;;;5015240;28;20050;-60
2021/06/25 11:44:05;;;;;;;0.00;0.00;;;20.90;61.20;;;;;;5024672;28;20473;-62
2021/06/25 11:46:32;;;;;;;0.00;0.00;;;20.90;61.20;;;;;;5016145;28;20058;-62
2021/06/25 11:49:03;;;;;;;0.00;0.00;;;20.90;61.50;;;;;;5019722;28;20131;-66
2021/06/25 11:51:39;;;;;;;0.00;0.00;;;20.90;62.20;;;;;;5015001;28;20053;-76
2021/06/25 11:54:09;;;;;;;0.00;0.00;;;20.90;63.30;;;;;;5016684;28;20049;-68
2021/06/25 11:56:36;;;;;;;0.00;0.00;;;20.80;63.90;;;;;;5026942;28;20440;-68
2021/06/25 11:59:05;;;;;;;0.00;0.00;;;20.80;64.40;;;;;;5022086;28;20050;-65
2021/06/25 12:01:46;;;;;;;0.22;0.10;;;20.80;65.00;;;;;;5021447;28;20119;-74
2021/06/25 12:04:12;;;;;;;0.03;0.03;;;20.80;65.50;;;;;;5028165;28;20062;-65
2021/06/25 12:06:49;;;;;;;0.00;0.00;;;20.80;65.30;;;;;;5009016;28;20057;-71
2021/06/25 12:09:15;;;;;;;0.00;0.00;;;20.80;65.50;;;;;;5006265;28;20054;-61
2021/06/25 12:11:42;;;;;;;0.00;0.00;;;20.80;65.50;;;;;;5002250;28;20049;-61
2021/06/25 12:14:11;;;;;;;0.00;0.00;;;20.80;65.20;;;;;;5010795;28;20057;-61
2021/06/25 12:16:42;;;;;;;0.00;0.00;;;20.80;65.00;;;;;;5011499;28;20054;-61
2021/06/25 12:19:12;;;;;;;0.00;0.00;;;20.90;64.50;;;;;;5021859;28;20061;-64
2021/06/25 12:21:39;;;;;;;0.00;0.00;;;20.90;64.40;;;;;;5025512;28;20058;-61
2021/06/25 12:24:06;;;;;;;0.00;0.00;;;21.00;64.20;;;;;;5022493;28;20046;-61
2021/06/25 12:26:32;;;;;;;0.00;0.00;;;21.10;64.10;;;;;;5025725;28;20132;-61
2021/06/25 12:29:01;;;;;;;0.00;0.00;;;21.20;64.00;;;;;;5021232;28;20084;-61
2021/06/25 12:31:32;;;;;;;0.00;0.00;;;21.20;63.70;;;;;;5011949;28;20045;-61
2021/06/25 12:34:16;;;;;;;0.00;0.00;;;21.20;63.20;;;;;;5009106;28;20157;-61
2021/06/25 12:36:44;;;;;;;0.00;0.00;;;21.20;62.50;;;;;;5008866;28;20527;-61
2021/06/25 12:39:12;;;;;;;0.00;0.00;;;21.20;62.40;;;;;;5008727;28;20498;-61
2021/06/25 12:41:47;;;;;;;0.00;0.00;;;21.20;61.70;;;;;;5008302;28;20104;-61
2021/06/25 12:44:14;;;;;;;0.00;0.00;;;21.20;61.70;;;;;;5008755;28;20100;-61
2021/06/25 12:46:40;;;;;;;0.10;0.10;;;21.10;61.50;;;;;;5008589;28;20058;-61
2021/06/25 12:49:07;;;;;;;0.00;0.00;;;21.10;61.90;;;;;;5008387;28;20095;-61
2021/06/25 12:51:35;;;;;;;0.00;0.00;;;21.10;62.00;;;;;;5007352;28;20129;-61
2021/06/25 12:54:04;;;;;;;0.00;0.00;;;21.10;61.90;;;;;;5008557;28;20061;-61
2021/06/25 12:56:36;;;;;;;0.00;0.00;;;21.10;61.40;;;;;;5008577;28;20136;-61
2021/06/25 12:59:11;;;;;;;0.00;0.00;;;21.20;61.00;;;;;;5007940;28;20468;-61
2021/06/25 13:01:39;;;;;;;0.00;0.00;;;21.20;61.20;;;;;;5008285;28;20057;-61
2021/06/25 13:04:25;;;;;;;0.00;0.00;;;21.20;61.00;;;;;;5008753;28;20481;-61
2021/06/25 13:06:57;;;;;;;0.10;0.00;;;21.20;61.00;;;;;;5007982;28;20100;-61
2021/06/25 13:09:29;;;;;;;0.00;0.00;;;21.20;60.90;;;;;;5008478;28;20054;-61
2021/06/25 13:12:22;;;;;;;0.00;0.00;;;21.20;61.10;;;;;;5008350;28;20057;-61